createdAt,value
2019-05-18T00:01:07.207Z,98203.38
2019-05-18T00:03:37.914Z,98201.24
2019-05-18T00:06:08.752Z,98195.81
2019-05-18T00:08:39.522Z,98200.95
2019-05-18T00:11:09.996Z,98205.02
2019-05-18T00:13:40.597Z,98209.92
2019-05-18T00:16:11.215Z,98215.08
2019-05-18T00:18:41.892Z,98209.10
2019-05-18T00:21:12.984Z,98209.94
2019-05-18T00:23:43.784Z,98208.05
2019-05-18T00:26:14.657Z,98206.16
2019-05-18T00:28:45.463Z,98203.98
2019-05-18T00:31:16.389Z,98211.31
2019-05-18T00:33:47.295Z,98205.35
2019-05-18T00:36:19.099Z,98203.45
2019-05-18T00:38:50.111Z,98205.08
2019-05-18T00:41:20.834Z,98206.16
2019-05-18T00:43:51.625Z,98204.81
2019-05-18T00:46:22.578Z,98206.69
2019-05-18T00:48:53.408Z,98211.56
2019-05-18T00:51:24.177Z,98204.55
2019-05-18T00:53:55.013Z,98204.80
2019-05-18T00:56:25.967Z,98206.70
2019-05-18T00:58:56.689Z,98201.27
2019-05-18T01:01:27.365Z,98204.27
2019-05-18T01:03:58.413Z,98205.62
2019-05-18T01:06:29.228Z,98205.88
2019-05-18T01:09:00.075Z,98203.97
2019-05-18T01:11:30.774Z,98209.67
2019-05-18T01:14:01.692Z,98211.05
2019-05-18T01:16:32.647Z,98206.43
2019-05-18T01:19:03.494Z,98208.59
2019-05-18T01:21:34.145Z,98212.41
2019-05-18T01:24:04.844Z,98205.89
2019-05-18T01:26:35.317Z,98205.89
2019-05-18T01:29:06.785Z,98205.34
2019-05-18T01:31:37.388Z,98205.09
2019-05-18T01:34:07.894Z,98199.91
2019-05-18T01:36:38.429Z,98206.97
2019-05-18T01:39:09.231Z,98204.00
2019-05-18T01:41:39.831Z,98205.33
2019-05-18T01:44:10.812Z,98203.45
2019-05-18T01:46:41.587Z,98203.17
2019-05-18T01:49:13.281Z,98200.41
2019-05-18T01:51:43.950Z,98206.62
2019-05-18T01:54:14.811Z,98200.13
2019-05-18T01:56:45.628Z,98202.03
2019-05-18T01:59:16.492Z,98194.72
2019-05-18T02:01:47.257Z,98197.16
2019-05-18T02:04:18.068Z,98189.28
2019-05-18T02:06:48.991Z,98193.88
2019-05-18T02:09:19.856Z,98191.19
2019-05-18T02:11:50.673Z,98190.38
2019-05-18T02:14:21.648Z,98190.38
2019-05-18T02:16:52.336Z,98192.05
2019-05-18T02:19:24.830Z,98196.66
2019-05-18T02:21:55.631Z,98197.75
2019-05-18T02:24:26.379Z,98194.75
2019-05-18T02:26:56.989Z,98194.50
2019-05-18T02:29:27.780Z,98195.78
2019-05-18T02:31:58.548Z,98196.05
2019-05-18T02:34:29.331Z,98198.75
2019-05-18T02:37:00.087Z,98196.32
2019-05-18T02:39:30.798Z,98204.66
2019-05-18T02:42:01.845Z,98199.26
2019-05-18T02:44:32.495Z,98196.05
2019-05-18T02:47:03.233Z,98195.23
2019-05-18T02:49:34.133Z,98195.78
2019-05-18T02:52:04.933Z,98199.30
2019-05-18T02:54:35.694Z,98198.00
2019-05-18T02:57:06.305Z,98196.93
2019-05-18T02:59:37.077Z,98198.28
2019-05-18T03:02:07.549Z,98198.27
2019-05-18T03:04:38.177Z,98192.30
2019-05-18T03:07:08.660Z,98192.05
2019-05-18T03:09:39.166Z,98190.69
2019-05-18T03:12:09.665Z,98182.52
2019-05-18T03:14:40.138Z,98187.39
2019-05-18T03:17:10.781Z,98189.82
2019-05-18T03:19:41.265Z,98182.78
2019-05-18T03:22:11.757Z,98184.66
2019-05-18T03:24:42.305Z,98182.20
2019-05-18T03:27:12.821Z,98181.39
2019-05-18T03:29:43.443Z,98184.68
2019-05-18T03:32:13.965Z,98181.15
2019-05-18T03:34:44.464Z,98180.08
2019-05-18T03:37:14.950Z,98180.62
2019-05-18T03:39:45.586Z,98177.34
2019-05-18T03:42:16.141Z,98175.73
2019-05-18T03:44:46.641Z,98176.52
2019-05-18T03:47:17.392Z,98172.41
2019-05-18T03:49:48.285Z,98174.83
2019-05-18T03:52:18.963Z,98175.88
2019-05-18T03:54:49.694Z,98176.42
2019-05-18T03:57:20.467Z,98180.77
2019-05-18T03:59:51.242Z,98182.66
2019-05-18T04:02:22.087Z,98179.38
2019-05-18T04:04:52.746Z,98182.34
2019-05-18T04:07:23.642Z,98181.23
2019-05-18T04:09:54.440Z,98180.71
2019-05-18T04:12:25.300Z,98179.31
2019-05-18T04:14:56.388Z,98183.66
2019-05-18T04:17:27.228Z,98180.16
2019-05-18T04:19:57.997Z,98185.89
2019-05-18T04:22:28.794Z,98180.23
2019-05-18T04:24:59.610Z,98184.06
2019-05-18T04:27:30.294Z,98187.33
2019-05-18T04:30:01.169Z,98190.33
2019-05-18T04:32:31.969Z,98196.00
2019-05-18T04:35:03.166Z,98191.14
2019-05-18T04:37:33.909Z,98195.77
2019-05-18T04:40:06.292Z,98192.00
2019-05-18T04:42:37.130Z,98185.00
2019-05-18T04:45:09.482Z,98192.33
2019-05-18T04:47:40.235Z,98187.72
2019-05-18T04:50:11.437Z,98191.22
2019-05-18T04:52:42.294Z,98187.17
2019-05-18T04:55:13.241Z,98187.45
2019-05-18T04:57:43.971Z,98181.77
2019-05-18T05:00:15.226Z,98187.72
2019-05-18T05:02:46.294Z,98180.95
2019-05-18T05:05:16.947Z,98180.13
2019-05-18T05:07:47.843Z,98181.48
2019-05-18T05:10:18.818Z,98179.06
2019-05-18T05:12:49.858Z,98184.48
2019-05-18T05:15:20.648Z,98181.77
2019-05-18T05:17:51.444Z,98176.61
2019-05-18T05:20:23.254Z,98173.08
2019-05-18T05:22:53.899Z,98176.89
2019-05-18T05:25:24.376Z,98179.59
2019-05-18T05:27:54.881Z,98180.41
2019-05-18T05:30:25.396Z,98178.23
2019-05-18T05:32:56.017Z,98180.11
2019-05-18T05:35:26.521Z,98175.53
2019-05-18T05:37:57.156Z,98177.95
2019-05-18T05:40:27.776Z,98177.41
2019-05-18T05:42:58.282Z,98176.33
2019-05-18T05:45:28.787Z,98175.25
2019-05-18T05:47:59.326Z,98179.05
2019-05-18T05:50:36.047Z,98184.18
2019-05-18T05:53:02.117Z,98181.42
2019-05-18T05:55:32.980Z,98180.61
2019-05-18T05:58:04.905Z,98184.39
2019-05-18T06:00:35.773Z,98184.38
2019-05-18T06:03:06.551Z,98187.91
2019-05-18T06:05:37.228Z,98189.00
2019-05-18T06:08:07.850Z,98183.89
2019-05-18T06:10:38.586Z,98181.41
2019-05-18T06:13:09.333Z,98187.87
2019-05-18T06:15:40.081Z,98183.49
2019-05-18T06:18:10.949Z,98188.92
2019-05-18T06:20:51.093Z,98195.45
2019-05-18T06:23:14.596Z,98186.97
2019-05-18T06:25:45.329Z,98186.34
2019-05-18T06:28:16.171Z,98187.59
2019-05-18T06:30:46.942Z,98183.76
2019-05-18T06:33:17.844Z,98183.84
2019-05-18T06:35:48.632Z,98180.42
2019-05-18T06:38:19.468Z,98180.13
2019-05-18T06:40:50.372Z,98186.87
2019-05-18T06:43:21.273Z,98183.80
2019-05-18T06:45:51.990Z,98194.33
2019-05-18T06:48:22.696Z,98194.94
2019-05-18T06:51:06.383Z,98191.73
2019-05-18T06:53:26.116Z,98193.56
2019-05-18T06:55:57.374Z,98192.91
2019-05-18T06:58:28.467Z,98196.98
2019-05-18T07:00:59.310Z,98201.79
2019-05-18T07:03:30.497Z,98196.93
2019-05-18T07:06:01.383Z,98200.88
2019-05-18T07:08:32.119Z,98200.95
2019-05-18T07:11:02.928Z,98203.80
2019-05-18T07:13:33.573Z,98203.09
2019-05-18T07:16:04.417Z,98207.05
2019-05-18T07:18:35.324Z,98200.64
2019-05-18T07:21:06.034Z,98197.63
2019-05-18T07:23:36.817Z,98205.34
2019-05-18T07:26:08.611Z,98193.84
2019-05-18T07:28:39.447Z,98194.79
2019-05-18T07:31:10.290Z,98196.61
2019-05-18T07:33:41.163Z,98188.77
2019-05-18T07:36:11.942Z,98195.84
2019-05-18T07:38:42.737Z,98195.67
2019-05-18T07:41:13.817Z,98192.30
2019-05-18T07:43:44.636Z,98188.57
2019-05-18T07:46:15.224Z,98192.52
2019-05-18T07:48:45.704Z,98187.08
2019-05-18T07:51:16.239Z,98189.39
2019-05-18T07:53:46.712Z,98188.69
2019-05-18T07:56:17.226Z,98189.19
2019-05-18T07:58:47.696Z,98185.34
2019-05-18T08:01:18.437Z,98186.34
2019-05-18T08:03:49.147Z,98187.34
2019-05-18T08:06:19.951Z,98192.23
2019-05-18T08:08:50.645Z,98178.52
2019-05-18T08:11:21.190Z,98189.07
2019-05-18T08:13:51.942Z,98179.37
2019-05-18T08:16:22.651Z,98183.31
2019-05-18T08:18:53.599Z,98177.63
2019-05-18T08:21:24.082Z,98182.89
2019-05-18T08:23:55.496Z,98176.40
2019-05-18T08:26:25.985Z,98171.97
2019-05-18T08:28:56.584Z,98173.07
2019-05-18T08:31:27.057Z,98174.85
2019-05-18T08:33:57.830Z,98172.84
2019-05-18T08:36:28.612Z,98171.02
2019-05-18T08:38:59.386Z,98164.63
2019-05-18T08:41:31.209Z,98161.77
2019-05-18T08:44:02.205Z,98164.36
2019-05-18T08:46:32.879Z,98160.82
2019-05-18T08:49:03.758Z,98158.88
2019-05-18T08:51:34.523Z,98159.41
2019-05-18T08:54:05.435Z,98162.44
2019-05-18T08:56:36.204Z,98156.26
2019-05-18T08:59:07.062Z,98154.73
2019-05-18T09:01:37.668Z,98157.01
2019-05-18T09:04:08.754Z,98158.03
2019-05-18T09:06:39.573Z,98156.33
2019-05-18T09:09:10.243Z,98148.91
2019-05-18T09:11:41.176Z,98149.98
2019-05-18T09:14:11.981Z,98153.05
2019-05-18T09:16:43.193Z,98155.80
2019-05-18T09:19:14.016Z,98146.50
2019-05-18T09:21:44.906Z,98147.92
2019-05-18T09:24:16.982Z,98145.38
2019-05-18T09:26:47.772Z,98151.87
2019-05-18T09:29:18.711Z,98143.59
2019-05-18T09:31:49.574Z,98146.97
2019-05-18T09:34:20.453Z,98140.97
2019-05-18T09:36:51.392Z,98142.09
2019-05-18T09:39:22.200Z,98139.86
2019-05-18T09:41:52.931Z,98145.81
2019-05-18T09:44:23.692Z,98143.50
2019-05-18T09:46:54.605Z,98139.02
2019-05-18T09:49:25.394Z,98135.07
2019-05-18T09:51:55.861Z,98129.75
2019-05-18T09:54:26.400Z,98129.17
2019-05-18T09:56:56.879Z,98126.27
2019-05-18T09:59:27.340Z,98128.30
2019-05-18T10:01:57.944Z,98124.14
2019-05-18T10:04:28.814Z,98131.13
2019-05-18T10:07:00.718Z,98121.19
2019-05-18T10:09:38.887Z,98117.59
2019-05-18T10:12:04.091Z,98120.05
2019-05-18T10:14:34.889Z,98113.03
2019-05-18T10:17:05.784Z,98121.73
2019-05-18T10:19:36.488Z,98110.20
2019-05-18T10:22:24.953Z,98121.47
2019-05-18T10:24:55.787Z,98119.20
2019-05-18T10:27:26.641Z,98112.63
2019-05-18T10:29:57.377Z,98114.13
2019-05-18T10:32:28.274Z,98107.02
2019-05-18T10:34:59.145Z,98115.22
2019-05-18T10:37:30.150Z,98111.77
2019-05-18T10:40:01.015Z,98117.04
2019-05-18T10:42:31.997Z,98112.50
2019-05-18T10:45:02.916Z,98110.41
2019-05-18T10:47:33.674Z,98110.42
2019-05-18T10:50:04.693Z,98112.31
2019-05-18T10:52:35.551Z,98115.81
2019-05-18T10:55:06.832Z,98117.58
2019-05-18T10:57:37.734Z,98118.09
2019-05-18T11:00:09.567Z,98114.80
2019-05-18T11:02:40.880Z,98111.34
2019-05-18T11:05:13.348Z,98110.41
2019-05-18T11:07:44.464Z,98107.06
2019-05-18T11:10:15.821Z,98104.28
2019-05-18T11:12:46.700Z,98107.98
2019-05-18T11:15:17.928Z,98103.61
2019-05-18T11:17:48.768Z,98100.75
2019-05-18T11:20:20.172Z,98096.16
2019-05-18T11:22:50.972Z,98101.75
2019-05-18T11:25:22.096Z,98095.13
2019-05-18T11:27:52.980Z,98088.06
2019-05-18T11:30:23.892Z,98093.03
2019-05-18T11:32:54.930Z,98092.45
2019-05-18T11:35:26.213Z,98091.50
2019-05-18T11:37:57.067Z,98092.28
2019-05-18T11:40:27.730Z,98086.18
2019-05-18T11:42:58.311Z,98089.09
2019-05-18T11:45:30.611Z,98084.94
2019-05-18T11:48:01.780Z,98090.45
2019-05-18T11:50:32.330Z,98085.52
2019-05-18T11:53:02.951Z,98088.91
2019-05-18T11:55:33.500Z,98081.64
2019-05-18T11:58:04.464Z,98083.83
2019-05-18T12:00:35.523Z,98083.83
2019-05-18T12:03:06.505Z,98087.62
2019-05-18T12:05:37.392Z,98084.48
2019-05-18T12:08:08.372Z,98080.08
2019-05-18T12:10:39.261Z,98081.47
2019-05-18T12:13:10.145Z,98079.27
2019-05-18T12:15:41.202Z,98069.44
2019-05-18T12:18:12.137Z,98067.28
2019-05-18T12:20:43.127Z,98061.52
2019-05-18T12:23:13.909Z,98067.95
2019-05-18T12:25:44.733Z,98066.52
2019-05-18T12:28:15.947Z,98062.39
2019-05-18T12:30:46.724Z,98068.92
2019-05-18T12:33:17.703Z,98074.52
2019-05-18T12:35:48.407Z,98075.84
2019-05-18T12:38:19.271Z,98078.31
2019-05-18T12:40:50.158Z,98072.42
2019-05-18T12:43:22.049Z,98067.34
2019-05-18T12:45:52.953Z,98066.85
2019-05-18T12:48:23.840Z,98062.91
2019-05-18T12:50:54.878Z,98067.03
2019-05-18T12:53:25.690Z,98061.47
2019-05-18T12:55:56.619Z,98055.23
2019-05-18T12:58:27.591Z,98055.98
2019-05-18T13:00:58.434Z,98053.38
2019-05-18T13:03:29.216Z,98053.26
2019-05-18T13:06:00.231Z,98054.88
2019-05-18T13:08:31.119Z,98060.80
2019-05-18T13:11:02.105Z,98056.79
2019-05-18T13:13:33.222Z,98050.14
2019-05-18T13:16:04.139Z,98049.11
2019-05-18T13:18:35.059Z,98047.03
2019-05-18T13:21:06.040Z,98038.59
2019-05-18T13:23:36.903Z,98037.44
2019-05-18T13:26:07.784Z,98038.59
2019-05-18T13:28:38.649Z,98041.53
2019-05-18T13:31:09.356Z,98042.20
2019-05-18T13:33:40.119Z,98036.27
2019-05-18T13:36:10.724Z,98033.66
2019-05-18T13:38:41.343Z,98038.21
2019-05-18T13:41:12.096Z,98033.41
2019-05-18T13:43:42.655Z,98039.64
2019-05-18T13:46:13.251Z,98042.11
2019-05-18T13:48:44.018Z,98034.94
2019-05-18T13:58:48.294Z,98030.66
2019-05-18T14:01:18.819Z,98030.05
2019-05-18T14:03:49.286Z,98029.45
2019-05-18T14:06:20.048Z,98038.67
2019-05-18T14:08:50.756Z,98027.64
2019-05-18T14:11:21.617Z,98028.70
2019-05-18T14:13:52.443Z,98028.70
2019-05-18T14:16:23.401Z,98031.16
2019-05-18T14:18:54.193Z,98037.84
2019-05-18T14:21:25.064Z,98043.28
2019-05-18T14:23:55.736Z,98043.86
2019-05-18T14:26:26.473Z,98044.97
2019-05-18T14:28:57.040Z,98042.87
2019-05-18T14:31:27.842Z,98043.48
2019-05-18T14:33:58.593Z,98041.97
2019-05-18T14:36:29.462Z,98033.16
2019-05-18T14:39:00.178Z,98035.54
2019-05-18T14:41:32.711Z,98040.95
2019-05-18T14:44:03.487Z,98039.14
2019-05-18T14:46:34.255Z,98039.86
2019-05-18T14:49:05.113Z,98032.76
2019-05-18T14:51:35.912Z,98039.86
2019-05-18T14:54:06.789Z,98043.88
2019-05-18T14:56:37.433Z,98040.50
2019-05-18T14:59:09.144Z,98041.73
2019-05-18T15:01:39.816Z,98044.02
2019-05-18T15:04:10.807Z,98042.19
2019-05-18T15:06:41.690Z,98038.27
2019-05-18T15:09:12.496Z,98040.52
2019-05-18T15:11:43.292Z,98037.67
2019-05-18T15:14:14.125Z,98037.72
2019-05-18T15:16:44.922Z,98044.86
2019-05-18T15:19:15.809Z,98034.47
2019-05-18T15:21:46.324Z,98041.17
2019-05-18T15:24:16.807Z,98040.59
2019-05-18T15:26:47.346Z,98035.05
2019-05-18T15:29:17.818Z,98033.77
2019-05-18T15:31:48.580Z,98034.61
2019-05-18T15:34:19.398Z,98033.47
2019-05-18T15:36:50.229Z,98028.33
2019-05-18T15:39:21.092Z,98029.58
2019-05-18T15:41:52.008Z,98027.87
2019-05-18T15:44:22.805Z,98030.14
2019-05-18T15:46:53.473Z,98032.86
2019-05-18T15:49:24.515Z,98027.06
2019-05-18T15:51:55.378Z,98024.80
2019-05-18T15:54:26.325Z,98026.04
2019-05-18T15:56:57.116Z,98033.16
2019-05-18T15:59:28.006Z,98034.72
2019-05-18T16:01:58.856Z,98026.87
2019-05-18T16:04:29.810Z,98031.28
2019-05-18T16:07:00.633Z,98033.11
2019-05-18T16:09:31.410Z,98027.03
2019-05-18T16:12:02.338Z,98030.38
2019-05-18T16:14:33.180Z,98023.27
2019-05-18T16:17:04.116Z,98019.70
2019-05-18T16:19:34.975Z,98021.24
2019-05-18T16:22:05.760Z,98018.05
2019-05-18T16:24:36.457Z,98017.92
2019-05-18T16:27:07.225Z,98019.03
2019-05-18T16:29:37.916Z,98012.53
2019-05-18T16:32:08.788Z,98010.56
2019-05-18T16:34:39.559Z,98003.33
2019-05-18T16:37:10.517Z,98008.53
2019-05-18T16:39:41.408Z,98007.53
2019-05-18T16:42:12.331Z,98002.05
2019-05-18T16:44:43.013Z,98007.02
2019-05-18T16:47:13.843Z,98002.68
2019-05-18T16:49:44.577Z,98006.61
2019-05-18T16:52:15.382Z,98011.53
2019-05-18T16:54:46.179Z,98010.17
2019-05-18T16:57:17.012Z,98014.45
2019-05-18T16:59:47.687Z,98019.45
2019-05-18T17:02:31.218Z,98024.31
2019-05-18T17:04:50.741Z,98021.34
2019-05-18T17:07:21.221Z,98024.07
2019-05-18T17:09:51.788Z,98021.13
2019-05-18T17:12:22.397Z,98025.70
2019-05-18T17:14:52.872Z,98027.15
2019-05-18T17:17:24.019Z,98024.48
2019-05-18T17:19:54.518Z,98028.71
2019-05-18T17:22:25.256Z,98024.66
2019-05-18T17:24:56.504Z,98023.39
2019-05-18T17:27:27.299Z,98026.50
2019-05-18T17:29:58.283Z,98026.34
2019-05-18T17:32:29.017Z,98031.19
2019-05-18T17:35:02.354Z,98035.28
2019-05-18T17:37:33.285Z,98034.02
2019-05-18T17:44:58.207Z,98037.33
2019-05-18T17:47:29.646Z,98042.11
2019-05-18T17:50:00.463Z,98041.06
2019-05-18T17:52:31.248Z,98047.27
2019-05-18T17:55:02.116Z,98052.34
2019-05-18T17:57:32.957Z,98047.90
2019-05-18T18:00:04.257Z,98051.80
2019-05-18T18:02:35.958Z,98053.92
2019-05-18T18:05:07.405Z,98052.57
2019-05-18T18:07:38.323Z,98062.64
2019-05-18T18:10:09.787Z,98057.26
2019-05-18T18:12:40.553Z,98062.37
2019-05-18T18:15:11.641Z,98064.00
2019-05-18T18:17:42.534Z,98069.20
2019-05-18T18:20:13.558Z,98072.13
2019-05-18T18:22:44.220Z,98070.72
2019-05-18T18:25:14.997Z,98076.84
2019-05-18T18:27:45.973Z,98086.22
2019-05-18T18:30:17.471Z,98089.25
2019-05-18T18:32:48.118Z,98088.23
2019-05-18T18:35:19.022Z,98093.85
2019-05-18T18:37:49.895Z,98095.66
2019-05-18T18:40:20.724Z,98094.27
2019-05-18T18:42:51.593Z,98101.55
2019-05-18T18:45:22.177Z,98104.48
2019-05-18T18:47:53.872Z,98103.81
2019-05-18T18:50:24.420Z,98114.70
2019-05-18T18:52:54.937Z,98115.28
2019-05-18T18:55:25.443Z,98119.25
2019-05-18T18:57:55.909Z,98125.99
2019-05-18T19:00:26.437Z,98133.97
2019-05-18T19:02:56.926Z,98140.87
2019-05-18T19:05:28.928Z,98140.83
2019-05-18T19:07:59.859Z,98151.13
2019-05-18T19:10:30.626Z,98153.33
2019-05-18T19:13:01.325Z,98152.17
2019-05-18T19:17:00.415Z,98152.93
2019-05-18T19:18:43.419Z,98157.50
2019-05-18T19:21:14.192Z,98156.33
2019-05-18T19:23:44.985Z,98169.16
2019-05-18T19:26:16.813Z,98173.48
2019-05-18T19:28:47.673Z,98171.66
2019-05-18T19:31:18.537Z,98173.75
2019-05-18T19:33:49.264Z,98166.77
2019-05-18T19:36:21.545Z,98164.92
2019-05-18T19:38:52.280Z,98166.09
2019-05-18T19:41:23.071Z,98162.38
2019-05-18T19:43:53.929Z,98164.00
2019-05-18T19:46:24.753Z,98158.44
2019-05-18T19:48:55.488Z,98164.23
2019-05-18T19:51:26.377Z,98157.50
2019-05-18T19:53:57.165Z,98153.60
2019-05-18T19:56:27.859Z,98157.80
2019-05-18T19:58:58.632Z,98152.84
2019-05-18T20:01:30.356Z,98161.93
2019-05-18T20:04:01.125Z,98161.51
2019-05-18T20:06:32.196Z,98158.79
2019-05-18T20:09:05.224Z,98159.70
2019-05-18T20:11:36.941Z,98152.80
2019-05-18T20:14:07.697Z,98155.13
2019-05-18T20:16:38.568Z,98160.81
2019-05-18T20:19:09.480Z,98164.90
2019-05-18T20:21:41.898Z,98162.98
2019-05-18T20:24:12.672Z,98163.78
2019-05-18T20:26:43.507Z,98156.20
2019-05-18T20:29:14.345Z,98162.89
2019-05-18T20:31:45.199Z,98167.24
2019-05-18T20:34:15.913Z,98172.52
2019-05-18T20:36:46.810Z,98168.73
2019-05-18T20:39:17.529Z,98175.00
2019-05-18T20:41:48.140Z,98174.41
2019-05-18T20:44:18.714Z,98173.64
2019-05-18T20:46:49.307Z,98176.05
2019-05-18T20:49:19.779Z,98174.70
2019-05-18T20:51:50.670Z,98168.73
2019-05-18T20:54:21.285Z,98160.92
2019-05-18T20:56:51.864Z,98166.13
2019-05-18T20:59:22.481Z,98166.31
2019-05-18T21:01:53.561Z,98162.77
2019-05-18T21:04:24.309Z,98170.38
2019-05-18T21:06:55.354Z,98165.55
2019-05-18T21:09:26.195Z,98166.36
2019-05-18T21:11:57.012Z,98166.39
2019-05-18T21:14:27.790Z,98161.78
2019-05-18T21:16:58.662Z,98164.02
2019-05-18T21:19:29.483Z,98160.81
2019-05-18T21:22:00.424Z,98163.57
2019-05-18T21:24:31.141Z,98161.72
2019-05-18T21:27:02.644Z,98158.09
2019-05-18T21:29:33.412Z,98156.20
2019-05-18T21:32:05.142Z,98158.97
2019-05-18T21:34:36.080Z,98158.43
2019-05-18T21:37:06.964Z,98157.56
2019-05-18T21:39:37.719Z,98158.67
2019-05-18T21:42:08.598Z,98156.49
2019-05-18T21:44:39.381Z,98159.27
2019-05-18T21:47:10.086Z,98159.84
2019-05-18T21:49:41.006Z,98152.34
2019-05-18T21:52:11.740Z,98155.50
2019-05-18T21:54:42.596Z,98149.87
2019-05-18T21:57:13.520Z,98146.64
2019-05-18T21:59:44.199Z,98146.90
2019-05-18T22:02:15.178Z,98154.23
2019-05-18T22:04:45.919Z,98150.13
2019-05-18T22:07:16.818Z,98152.62
2019-05-18T22:09:47.548Z,98154.23
2019-05-18T22:12:18.375Z,98149.61
2019-05-18T22:14:49.155Z,98153.99
2019-05-18T22:17:19.991Z,98152.09
2019-05-18T22:19:50.865Z,98162.69
2019-05-18T22:22:21.353Z,98171.66
2019-05-18T22:24:51.876Z,98167.86
2019-05-18T22:27:22.372Z,98173.03
2019-05-18T22:29:52.990Z,98172.50
2019-05-18T22:32:23.463Z,98173.02
2019-05-18T22:34:53.996Z,98168.70
2019-05-18T22:37:24.507Z,98170.58
2019-05-18T22:39:55.043Z,98167.34
2019-05-18T22:42:26.964Z,98167.08
2019-05-18T22:44:57.760Z,98166.54
2019-05-18T22:47:28.637Z,98166.01
2019-05-18T22:49:59.423Z,98170.06
2019-05-18T22:52:30.316Z,98174.68
2019-05-18T22:55:01.094Z,98169.81
2019-05-18T22:57:32.071Z,98174.97
2019-05-18T23:00:02.939Z,98171.70
2019-05-18T23:02:35.451Z,98175.75
2019-05-18T23:05:06.463Z,98170.09
2019-05-18T23:07:37.354Z,98166.84
2019-05-18T23:10:08.366Z,98166.55
2019-05-18T23:12:39.145Z,98166.28
2019-05-18T23:15:10.610Z,98167.66
2019-05-18T23:17:41.367Z,98164.67
2019-05-18T23:20:12.619Z,98172.53
2019-05-18T23:22:43.441Z,98166.84
2019-05-18T23:25:14.319Z,98171.20
2019-05-18T23:27:45.282Z,98172.55
2019-05-18T23:30:17.581Z,98168.75
2019-05-18T23:32:50.490Z,98153.30
2019-05-18T23:35:20.968Z,98157.91
2019-05-18T23:37:51.667Z,98155.19
2019-05-18T23:40:23.017Z,98160.09
2019-05-18T23:42:53.714Z,98165.77
2019-05-18T23:45:24.508Z,98156.56
2019-05-18T23:47:55.320Z,98164.14
2019-05-18T23:50:26.142Z,98169.57
2019-05-18T23:52:57.305Z,98163.07
2019-05-18T23:55:28.028Z,98159.27
2019-05-18T23:58:05.093Z,98158.18
